sensor_id;sensor_type;location;lat;lon;timestamp;pressure;altitude;pressure_sealevel;temperature;humidity
35226;BME280;21813;49.686;21.766;2023-04-19T00:00:17;98383.78;;;10.01;100.00
35226;BME280;21813;49.686;21.766;2023-04-19T00:03:05;98377.38;;;9.94;100.00
35226;BME280;21813;49.686;21.766;2023-04-19T00:05:30;98365.88;;;9.86;100.00
35226;BME280;21813;49.686;21.766;2023-04-19T00:07:58;98366.13;;;9.83;100.00
35226;BME280;21813;49.686;21.766;2023-04-19T00:10:27;98363.16;;;9.76;100.00
35226;BME280;21813;49.686;21.766;2023-04-19T00:12:53;98383.28;;;9.85;100.00
35226;BME280;21813;49.686;21.766;2023-04-19T00:15:22;98388.97;;;9.79;100.00
35226;BME280;21813;49.686;21.766;2023-04-19T00:17:50;98368.47;;;9.63;100.00
35226;BME280;21813;49.686;21.766;2023-04-19T00:20:16;98374.75;;;9.61;100.00
35226;BME280;21813;49.686;21.766;2023-04-19T00:22:42;98367.41;;;9.55;100.00
35226;BME280;21813;49.686;21.766;2023-04-19T00:25:08;98371.44;;;9.59;100.00
35226;BME280;21813;49.686;21.766;2023-04-19T00:27:34;98380.91;;;9.60;100.00
35226;BME280;21813;49.686;21.766;2023-04-19T00:30:00;98360.31;;;9.46;100.00
35226;BME280;21813;49.686;21.766;2023-04-19T00:32:27;98374.63;;;9.51;100.00
35226;BME280;21813;49.686;21.766;2023-04-19T00:34:53;98376.03;;;9.55;100.00
35226;BME280;21813;49.686;21.766;2023-04-19T00:37:19;98350.34;;;9.40;100.00
35226;BME280;21813;49.686;21.766;2023-04-19T00:39:45;98360.78;;;9.51;100.00
35226;BME280;21813;49.686;21.766;2023-04-19T00:42:11;98358.28;;;9.49;100.00
35226;BME280;21813;49.686;21.766;2023-04-19T00:44:37;98334.97;;;9.37;100.00
35226;BME280;21813;49.686;21.766;2023-04-19T00:47:29;98344.09;;;9.42;100.00
35226;BME280;21813;49.686;21.766;2023-04-19T00:52:24;98339.59;;;9.33;100.00
35226;BME280;21813;49.686;21.766;2023-04-19T00:58:34;98325.28;;;9.27;100.00
35226;BME280;21813;49.686;21.766;2023-04-19T01:01:10;98346.13;;;9.39;100.00
35226;BME280;21813;49.686;21.766;2023-04-19T01:03:41;98314.63;;;9.19;100.00
35226;BME280;21813;49.686;21.766;2023-04-19T01:06:08;98327.16;;;9.25;100.00
35226;BME280;21813;49.686;21.766;2023-04-19T01:11:35;98328.47;;;9.31;100.00
35226;BME280;21813;49.686;21.766;2023-04-19T01:14:01;98336.03;;;9.34;100.00
35226;BME280;21813;49.686;21.766;2023-04-19T01:16:28;98329.78;;;9.37;100.00
35226;BME280;21813;49.686;21.766;2023-04-19T01:18:54;98326.44;;;9.35;100.00
35226;BME280;21813;49.686;21.766;2023-04-19T01:21:20;98300.31;;;9.25;100.00
35226;BME280;21813;49.686;21.766;2023-04-19T01:23:46;98311.09;;;9.31;100.00
35226;BME280;21813;49.686;21.766;2023-04-19T01:26:12;98321.38;;;9.33;100.00
35226;BME280;21813;49.686;21.766;2023-04-19T01:28:38;98312.75;;;9.32;100.00
35226;BME280;21813;49.686;21.766;2023-04-19T01:31:06;98302.81;;;9.26;100.00
35226;BME280;21813;49.686;21.766;2023-04-19T01:33:31;98300.31;;;9.25;100.00
35226;BME280;21813;49.686;21.766;2023-04-19T01:35:57;98311.34;;;9.28;100.00
35226;BME280;21813;49.686;21.766;2023-04-19T01:38:23;98297.84;;;9.23;100.00
35226;BME280;21813;49.686;21.766;2023-04-19T01:40:49;98289.31;;;9.21;100.00
35226;BME280;21813;49.686;21.766;2023-04-19T01:43:18;98290.16;;;9.22;100.00
35226;BME280;21813;49.686;21.766;2023-04-19T01:46:32;98272.88;;;9.10;100.00
35226;BME280;21813;49.686;21.766;2023-04-19T01:48:59;98295.09;;;9.25;100.00
35226;BME280;21813;49.686;21.766;2023-04-19T01:51:24;98265.28;;;9.07;100.00
35226;BME280;21813;49.686;21.766;2023-04-19T01:53:50;98294.50;;;9.21;100.00
35226;BME280;21813;49.686;21.766;2023-04-19T01:56:18;98285.19;;;9.19;100.00
35226;BME280;21813;49.686;21.766;2023-04-19T01:58:44;98289.31;;;9.21;100.00
35226;BME280;21813;49.686;21.766;2023-04-19T02:01:10;98281.03;;;9.16;100.00
35226;BME280;21813;49.686;21.766;2023-04-19T02:03:38;98279.06;;;9.20;100.00
35226;BME280;21813;49.686;21.766;2023-04-19T02:06:04;98263.41;;;9.09;100.00
35226;BME280;21813;49.686;21.766;2023-04-19T02:08:30;98268.16;;;9.15;100.00
35226;BME280;21813;49.686;21.766;2023-04-19T02:10:56;98274.91;;;9.17;100.00
35226;BME280;21813;49.686;21.766;2023-04-19T02:13:21;98280.56;;;9.22;100.00
35226;BME280;21813;49.686;21.766;2023-04-19T02:15:47;98273.03;;;9.19;100.00
35226;BME280;21813;49.686;21.766;2023-04-19T02:18:13;98279.75;;;9.22;100.00
35226;BME280;21813;49.686;21.766;2023-04-19T02:20:42;98273.72;;;9.21;100.00
35226;BME280;21813;49.686;21.766;2023-04-19T02:23:08;98258.81;;;9.12;100.00
35226;BME280;21813;49.686;21.766;2023-04-19T02:25:34;98264.72;;;9.14;100.00
35226;BME280;21813;49.686;21.766;2023-04-19T02:28:00;98252.91;;;9.10;100.00
35226;BME280;21813;49.686;21.766;2023-04-19T02:30:41;98255.50;;;9.10;100.00
35226;BME280;21813;49.686;21.766;2023-04-19T02:33:07;98255.28;;;9.13;100.00
35226;BME280;21813;49.686;21.766;2023-04-19T02:35:50;98233.63;;;9.02;100.00
35226;BME280;21813;49.686;21.766;2023-04-19T02:38:31;98260.03;;;9.19;100.00
35226;BME280;21813;49.686;21.766;2023-04-19T02:40:58;98254.34;;;9.14;100.00
35226;BME280;21813;49.686;21.766;2023-04-19T02:43:31;98260.03;;;9.19;100.00
35226;BME280;21813;49.686;21.766;2023-04-19T02:45:57;98255.03;;;9.16;100.00
35226;BME280;21813;49.686;21.766;2023-04-19T02:48:35;98244.03;;;9.13;100.00
35226;BME280;21813;49.686;21.766;2023-04-19T02:51:04;98227.13;;;9.07;100.00
35226;BME280;21813;49.686;21.766;2023-04-19T02:53:30;98249.13;;;9.14;100.00
35226;BME280;21813;49.686;21.766;2023-04-19T02:56:00;98247.22;;;9.16;100.00
35226;BME280;21813;49.686;21.766;2023-04-19T02:58:25;98249.00;;;9.16;100.00
35226;BME280;21813;49.686;21.766;2023-04-19T03:00:51;98228.78;;;9.08;100.00
35226;BME280;21813;49.686;21.766;2023-04-19T03:03:17;98243.00;;;9.15;100.00
35226;BME280;21813;49.686;21.766;2023-04-19T03:05:43;98239.44;;;9.16;100.00
35226;BME280;21813;49.686;21.766;2023-04-19T03:08:11;98232.59;;;9.15;100.00
35226;BME280;21813;49.686;21.766;2023-04-19T03:14:14;98244.41;;;9.19;100.00
35226;BME280;21813;49.686;21.766;2023-04-19T03:16:42;98231.63;;;9.16;100.00
35226;BME280;21813;49.686;21.766;2023-04-19T03:19:07;98229.75;;;9.18;100.00
35226;BME280;21813;49.686;21.766;2023-04-19T03:21:33;98232.84;;;9.23;100.00
35226;BME280;21813;49.686;21.766;2023-04-19T03:24:02;98223.63;;;9.19;100.00
35226;BME280;21813;49.686;21.766;2023-04-19T03:32:55;98204.34;;;9.11;100.00
35226;BME280;21813;49.686;21.766;2023-04-19T03:35:21;98217.59;;;9.19;100.00
35226;BME280;21813;49.686;21.766;2023-04-19T03:38:04;98224.78;;;9.26;100.00
35226;BME280;21813;49.686;21.766;2023-04-19T03:40:33;98225.50;;;9.28;100.00
35226;BME280;21813;49.686;21.766;2023-04-19T03:43:09;98196.31;;;9.14;100.00
35226;BME280;21813;49.686;21.766;2023-04-19T03:45:37;98204.22;;;9.12;100.00
35226;BME280;21813;49.686;21.766;2023-04-19T03:48:04;98197.13;;;9.14;100.00
35226;BME280;21813;49.686;21.766;2023-04-19T03:50:32;98212.97;;;9.22;100.00
35226;BME280;21813;49.686;21.766;2023-04-19T03:53:00;98192.88;;;9.13;100.00
35226;BME280;21813;49.686;21.766;2023-04-19T03:55:35;98200.06;;;9.21;100.00
35226;BME280;21813;49.686;21.766;2023-04-19T03:58:13;98191.00;;;9.15;100.00
35226;BME280;21813;49.686;21.766;2023-04-19T04:00:39;98201.63;;;9.23;100.00
35226;BME280;21813;49.686;21.766;2023-04-19T04:03:05;98185.56;;;9.18;100.00
35226;BME280;21813;49.686;21.766;2023-04-19T04:05:37;98205.53;;;9.29;100.00
35226;BME280;21813;49.686;21.766;2023-04-19T04:08:23;98191.44;;;9.20;100.00
35226;BME280;21813;49.686;21.766;2023-04-19T04:10:50;98189.09;;;9.17;100.00
35226;BME280;21813;49.686;21.766;2023-04-19T04:13:16;98184.13;;;9.14;100.00
35226;BME280;21813;49.686;21.766;2023-04-19T04:16:08;98176.09;;;9.06;100.00
35226;BME280;21813;49.686;21.766;2023-04-19T04:18:33;98200.69;;;9.24;100.00
35226;BME280;21813;49.686;21.766;2023-04-19T04:21:08;98179.41;;;9.08;100.00
35226;BME280;21813;49.686;21.766;2023-04-19T04:23:34;98192.88;;;9.13;100.00
35226;BME280;21813;49.686;21.766;2023-04-19T04:26:19;98182.94;;;9.07;100.00
35226;BME280;21813;49.686;21.766;2023-04-19T04:28:50;98214.84;;;9.20;100.00
35226;BME280;21813;49.686;21.766;2023-04-19T04:31:27;98189.91;;;9.07;100.00
35226;BME280;21813;49.686;21.766;2023-04-19T04:33:52;98210.81;;;9.16;100.00
35226;BME280;21813;49.686;21.766;2023-04-19T04:36:20;98187.66;;;9.02;100.00
35226;BME280;21813;49.686;21.766;2023-04-19T04:38:46;98213.66;;;9.13;100.00
35226;BME280;21813;49.686;21.766;2023-04-19T04:41:14;98205.16;;;9.11;100.00
35226;BME280;21813;49.686;21.766;2023-04-19T04:43:48;98197.22;;;9.02;100.00
35226;BME280;21813;49.686;21.766;2023-04-19T04:46:18;98195.69;;;8.99;100.00
35226;BME280;21813;49.686;21.766;2023-04-19T04:48:46;98199.81;;;9.02;100.00
35226;BME280;21813;49.686;21.766;2023-04-19T04:51:29;98204.69;;;9.06;100.00
35226;BME280;21813;49.686;21.766;2023-04-19T04:53:57;98192.63;;;8.94;100.00
35226;BME280;21813;49.686;21.766;2023-04-19T04:56:22;98197.72;;;8.96;100.00
35226;BME280;21813;49.686;21.766;2023-04-19T04:58:50;98209.28;;;9.03;100.00
35226;BME280;21813;49.686;21.766;2023-04-19T05:01:16;98195.09;;;8.96;100.00
35226;BME280;21813;49.686;21.766;2023-04-19T05:03:46;98178.78;;;8.82;100.00
35226;BME280;21813;49.686;21.766;2023-04-19T05:06:12;98181.50;;;8.81;100.00
35226;BME280;21813;49.686;21.766;2023-04-19T05:08:52;98192.38;;;8.86;100.00
35226;BME280;21813;49.686;21.766;2023-04-19T05:11:31;98206.19;;;8.98;100.00
35226;BME280;21813;49.686;21.766;2023-04-19T05:14:00;98208.81;;;8.98;100.00
35226;BME280;21813;49.686;21.766;2023-04-19T05:16:27;98210.47;;;8.99;100.00
35226;BME280;21813;49.686;21.766;2023-04-19T05:18:53;98191.19;;;8.90;100.00
35226;BME280;21813;49.686;21.766;2023-04-19T05:21:20;98200.06;;;8.99;100.00
35226;BME280;21813;49.686;21.766;2023-04-19T05:24:17;98172.75;;;8.82;100.00
35226;BME280;21813;49.686;21.766;2023-04-19T05:26:43;98190.25;;;8.91;100.00
35226;BME280;21813;49.686;21.766;2023-04-19T05:29:09;98178.06;;;8.80;100.00
35226;BME280;21813;49.686;21.766;2023-04-19T05:32:19;98209.41;;;9.01;100.00
35226;BME280;21813;49.686;21.766;2023-04-19T05:34:48;98201.13;;;8.96;100.00
35226;BME280;21813;49.686;21.766;2023-04-19T05:37:15;98189.53;;;8.89;100.00
35226;BME280;21813;49.686;21.766;2023-04-19T05:39:41;98197.22;;;8.91;100.00
35226;BME280;21813;49.686;21.766;2023-04-19T05:45:11;98211.28;;;8.99;100.00
35226;BME280;21813;49.686;21.766;2023-04-19T05:47:37;98199.72;;;8.92;100.00
35226;BME280;21813;49.686;21.766;2023-04-19T05:50:10;98213.16;;;8.97;100.00
35226;BME280;21813;49.686;21.766;2023-04-19T05:52:36;98206.91;;;8.88;100.00
35226;BME280;21813;49.686;21.766;2023-04-19T05:55:02;98199.94;;;8.89;100.00
35226;BME280;21813;49.686;21.766;2023-04-19T05:57:30;98211.53;;;8.96;100.00
35226;BME280;21813;49.686;21.766;2023-04-19T05:59:56;98206.94;;;9.00;100.00
35226;BME280;21813;49.686;21.766;2023-04-19T06:02:23;98207.16;;;8.97;100.00
35226;BME280;21813;49.686;21.766;2023-04-19T06:04:49;98212.13;;;9.00;100.00
35226;BME280;21813;49.686;21.766;2023-04-19T06:07:34;98211.78;;;9.04;100.00
35226;BME280;21813;49.686;21.766;2023-04-19T06:10:03;98215.78;;;9.08;100.00
35226;BME280;21813;49.686;21.766;2023-04-19T06:12:30;98208.72;;;9.10;100.00
35226;BME280;21813;49.686;21.766;2023-04-19T06:14:58;98213.44;;;9.16;100.00
35226;BME280;21813;49.686;21.766;2023-04-19T06:17:25;98215.34;;;9.14;100.00
35226;BME280;21813;49.686;21.766;2023-04-19T06:19:51;98218.41;;;9.19;100.00
35226;BME280;21813;49.686;21.766;2023-04-19T06:22:19;98215.56;;;9.22;100.00
35226;BME280;21813;49.686;21.766;2023-04-19T06:24:45;98219.84;;;9.23;100.00
35226;BME280;21813;49.686;21.766;2023-04-19T06:27:14;98212.97;;;9.22;100.00
35226;BME280;21813;49.686;21.766;2023-04-19T06:29:41;98213.34;;;9.29;100.00
35226;BME280;21813;49.686;21.766;2023-04-19T06:32:11;98210.84;;;9.27;100.00
35226;BME280;21813;49.686;21.766;2023-04-19T06:34:37;98213.91;;;9.32;100.00
35226;BME280;21813;49.686;21.766;2023-04-19T06:37:03;98208.94;;;9.29;100.00
35226;BME280;21813;49.686;21.766;2023-04-19T06:39:29;98223.25;;;9.35;100.00
35226;BME280;21813;49.686;21.766;2023-04-19T06:41:56;98218.28;;;9.32;100.00
35226;BME280;21813;49.686;21.766;2023-04-19T06:44:23;98225.75;;;9.37;100.00
35226;BME280;21813;49.686;21.766;2023-04-19T06:46:51;98214.50;;;9.36;100.00
35226;BME280;21813;49.686;21.766;2023-04-19T06:49:16;98216.28;;;9.36;100.00
35226;BME280;21813;49.686;21.766;2023-04-19T06:51:43;98219.09;;;9.44;100.00
35226;BME280;21813;49.686;21.766;2023-04-19T06:54:08;98205.66;;;9.39;100.00
35226;BME280;21813;49.686;21.766;2023-04-19T06:56:53;98208.69;;;9.44;100.00
35226;BME280;21813;49.686;21.766;2023-04-19T06:59:19;98219.09;;;9.55;100.00
35226;BME280;21813;49.686;21.766;2023-04-19T07:01:46;98221.59;;;9.56;100.00
35226;BME280;21813;49.686;21.766;2023-04-19T07:04:12;98213.66;;;9.58;100.00
35226;BME280;21813;49.686;21.766;2023-04-19T07:06:39;98220.25;;;9.62;100.00
35226;BME280;21813;49.686;21.766;2023-04-19T07:09:06;98220.03;;;9.65;100.00
35226;BME280;21813;49.686;21.766;2023-04-19T07:11:34;98206.69;;;9.58;100.00
35226;BME280;21813;49.686;21.766;2023-04-19T07:13:59;98228.44;;;9.68;100.00
35226;BME280;21813;49.686;21.766;2023-04-19T07:16:27;98213.19;;;9.64;100.00
35226;BME280;21813;49.686;21.766;2023-04-19T07:18:53;98214.84;;;9.65;100.00
35226;BME280;21813;49.686;21.766;2023-04-19T07:21:19;98203.50;;;9.66;100.00
35226;BME280;21813;49.686;21.766;2023-04-19T07:26:35;98236.59;;;9.75;100.00
35226;BME280;21813;49.686;21.766;2023-04-19T07:29:14;98208.22;;;9.61;100.00
35226;BME280;21813;49.686;21.766;2023-04-19T07:31:39;98223.13;;;9.70;100.00
35226;BME280;21813;49.686;21.766;2023-04-19T07:34:06;98226.41;;;9.72;100.00
35226;BME280;21813;49.686;21.766;2023-04-19T07:36:32;98225.00;;;9.68;100.00
35226;BME280;21813;49.686;21.766;2023-04-19T07:39:02;98219.78;;;9.68;100.00
35226;BME280;21813;49.686;21.766;2023-04-19T07:41:30;98213.19;;;9.64;100.00
35226;BME280;21813;49.686;21.766;2023-04-19T07:43:57;98215.69;;;9.65;100.00
35226;BME280;21813;49.686;21.766;2023-04-19T07:46:22;98218.97;;;9.67;100.00
35226;BME280;21813;49.686;21.766;2023-04-19T07:48:52;98202.53;;;9.67;100.00
35226;BME280;21813;49.686;21.766;2023-04-19T07:51:19;98203.34;;;9.67;100.00
35226;BME280;21813;49.686;21.766;2023-04-19T07:53:46;98207.25;;;9.73;100.00
35226;BME280;21813;49.686;21.766;2023-04-19T07:56:36;98209.50;;;9.77;100.00
35226;BME280;21813;49.686;21.766;2023-04-19T07:59:03;98210.91;;;9.82;100.00
35226;BME280;21813;49.686;21.766;2023-04-19T08:01:29;98236.41;;;9.99;100.00
35226;BME280;21813;49.686;21.766;2023-04-19T08:03:55;98231.09;;;10.00;100.00
35226;BME280;21813;49.686;21.766;2023-04-19T08:06:21;98223.84;;;10.04;100.00
35226;BME280;21813;49.686;21.766;2023-04-19T08:08:49;98213.81;;;9.99;100.00
35226;BME280;21813;49.686;21.766;2023-04-19T08:11:14;98225.16;;;10.09;100.00
35226;BME280;21813;49.686;21.766;2023-04-19T08:13:41;98212.50;;;10.05;100.00
35226;BME280;21813;49.686;21.766;2023-04-19T08:16:07;98212.84;;;10.11;100.00
35226;BME280;21813;49.686;21.766;2023-04-19T08:18:33;98219.13;;;10.09;100.00
35226;BME280;21813;49.686;21.766;2023-04-19T08:21:00;98225.16;;;10.09;100.00
35226;BME280;21813;49.686;21.766;2023-04-19T08:23:26;98216.66;;;10.07;100.00
35226;BME280;21813;49.686;21.766;2023-04-19T08:25:52;98201.97;;;10.06;100.00
35226;BME280;21813;49.686;21.766;2023-04-19T08:28:18;98211.94;;;10.01;100.00
35226;BME280;21813;49.686;21.766;2023-04-19T08:30:44;98221.84;;;10.07;100.00
35226;BME280;21813;49.686;21.766;2023-04-19T08:33:11;98206.16;;;9.98;100.00
35226;BME280;21813;49.686;21.766;2023-04-19T08:35:37;98207.06;;;10.08;100.00
35226;BME280;21813;49.686;21.766;2023-04-19T08:38:07;98212.19;;;9.98;100.00
35226;BME280;21813;49.686;21.766;2023-04-19T08:40:34;98186.38;;;9.95;100.00
35226;BME280;21813;49.686;21.766;2023-04-19T08:43:04;98215.47;;;10.00;100.00
35226;BME280;21813;49.686;21.766;2023-04-19T08:45:31;98213.81;;;9.99;100.00
35226;BME280;21813;49.686;21.766;2023-04-19T08:47:58;98211.94;;;10.01;100.00
35226;BME280;21813;49.686;21.766;2023-04-19T08:50:25;98214.50;;;10.12;100.00
35226;BME280;21813;49.686;21.766;2023-04-19T08:52:54;98223.00;;;10.14;100.00
35226;BME280;21813;49.686;21.766;2023-04-19T08:55:20;98205.16;;;10.10;100.00
35226;BME280;21813;49.686;21.766;2023-04-19T08:57:47;98206.81;;;10.11;100.00
35226;BME280;21813;49.686;21.766;2023-04-19T09:00:13;98198.66;;;10.04;100.00
35226;BME280;21813;49.686;21.766;2023-04-19T09:02:51;98220.19;;;10.17;100.00
35226;BME280;21813;49.686;21.766;2023-04-19T09:05:19;98192.00;;;10.11;100.00
35226;BME280;21813;49.686;21.766;2023-04-19T09:07:47;98214.50;;;10.12;100.00
35226;BME280;21813;49.686;21.766;2023-04-19T09:10:20;98217.56;;;10.17;100.00
35226;BME280;21813;49.686;21.766;2023-04-19T09:13:03;98214.75;;;10.21;100.00
35226;BME280;21813;49.686;21.766;2023-04-19T09:15:39;98210.25;;;10.11;100.00
35226;BME280;21813;49.686;21.766;2023-04-19T09:18:09;98207.88;;;10.08;100.00
35226;BME280;21813;49.686;21.766;2023-04-19T09:20:39;98218.28;;;10.08;100.00
35226;BME280;21813;49.686;21.766;2023-04-19T09:23:09;98231.06;;;10.11;100.00
35226;BME280;21813;49.686;21.766;2023-04-19T09:28:20;98216.88;;;10.04;100.00
35226;BME280;21813;49.686;21.766;2023-04-19T09:30:47;98226.81;;;10.10;100.00
35226;BME280;21813;49.686;21.766;2023-04-19T09:33:32;98228.94;;;10.05;100.00
35226;BME280;21813;49.686;21.766;2023-04-19T09:35:59;98222.13;;;9.93;100.00
35226;BME280;21813;49.686;21.766;2023-04-19T09:38:25;98221.88;;;9.85;100.00
35226;BME280;21813;49.686;21.766;2023-04-19T09:40:52;98229.22;;;9.91;100.00
35226;BME280;21813;49.686;21.766;2023-04-19T09:43:30;98220.63;;;9.80;100.00
35226;BME280;21813;49.686;21.766;2023-04-19T09:45:56;98218.13;;;9.78;100.00
35226;BME280;21813;49.686;21.766;2023-04-19T09:48:22;98241.09;;;9.84;100.00
35226;BME280;21813;49.686;21.766;2023-04-19T09:50:57;98221.72;;;9.66;100.00
35226;BME280;21813;49.686;21.766;2023-04-19T09:53:28;98241.09;;;9.73;100.00
35226;BME280;21813;49.686;21.766;2023-04-19T09:55:55;98212.97;;;9.56;100.00
35226;BME280;21813;49.686;21.766;2023-04-19T09:58:21;98228.69;;;9.54;100.00
35226;BME280;21813;49.686;21.766;2023-04-19T10:00:48;98237.06;;;9.69;100.00
35226;BME280;21813;49.686;21.766;2023-04-19T10:03:18;98232.69;;;9.58;100.00
35226;BME280;21813;49.686;21.766;2023-04-19T10:05:46;98232.22;;;9.64;100.00
35226;BME280;21813;49.686;21.766;2023-04-19T10:08:13;98229.88;;;9.61;100.00
35226;BME280;21813;49.686;21.766;2023-04-19T10:10:40;98234.72;;;9.66;100.00
35226;BME280;21813;49.686;21.766;2023-04-19T10:13:11;98237.53;;;9.74;100.00
35226;BME280;21813;49.686;21.766;2023-04-19T10:15:38;98240.03;;;9.75;100.00
35226;BME280;21813;49.686;21.766;2023-04-19T10:18:25;98246.41;;;9.71;100.00
35226;BME280;21813;49.686;21.766;2023-04-19T10:21:00;98230.19;;;9.68;100.00
35226;BME280;21813;49.686;21.766;2023-04-19T10:23:28;98235.19;;;9.71;100.00
35226;BME280;21813;49.686;21.766;2023-04-19T10:25:56;98240.63;;;9.68;100.00
35226;BME280;21813;49.686;21.766;2023-04-19T10:28:22;98236.59;;;9.64;100.00
35226;BME280;21813;49.686;21.766;2023-04-19T10:31:11;98236.34;;;9.67;100.00
35226;BME280;21813;49.686;21.766;2023-04-19T10:33:40;98238.72;;;9.70;100.00
35226;BME280;21813;49.686;21.766;2023-04-19T10:36:13;98242.75;;;9.74;100.00
35226;BME280;21813;49.686;21.766;2023-04-19T10:38:41;98232.34;;;9.74;100.00
35226;BME280;21813;49.686;21.766;2023-04-19T10:41:14;98242.38;;;9.79;100.00
35226;BME280;21813;49.686;21.766;2023-04-19T10:51:24;98232.81;;;9.79;100.00
35226;BME280;21813;49.686;21.766;2023-04-19T10:54:05;98238.00;;;9.79;100.00
35226;BME280;21813;49.686;21.766;2023-04-19T11:04:56;98247.19;;;9.94;100.00
35226;BME280;21813;49.686;21.766;2023-04-19T11:07:23;98253.84;;;9.98;100.00
35226;BME280;21813;49.686;21.766;2023-04-19T11:09:49;98256.91;;;10.03;100.00
35226;BME280;21813;49.686;21.766;2023-04-19T11:12:19;98253.78;;;10.09;100.00
35226;BME280;21813;49.686;21.766;2023-04-19T11:14:47;98259.72;;;10.11;100.00
35226;BME280;21813;49.686;21.766;2023-04-19T11:19:52;98255.09;;;10.15;100.00
35226;BME280;21813;49.686;21.766;2023-04-19T11:24:55;98248.59;;;10.21;100.00
35226;BME280;21813;49.686;21.766;2023-04-19T11:27:22;98249.28;;;10.23;100.00
35226;BME280;21813;49.686;21.766;2023-04-19T11:29:48;98231.31;;;10.19;100.00
35226;BME280;21813;49.686;21.766;2023-04-19T11:32:15;98247.81;;;10.41;100.00
35226;BME280;21813;49.686;21.766;2023-04-19T11:34:40;98251.28;;;10.62;100.00
35226;BME280;21813;49.686;21.766;2023-04-19T11:37:08;98250.97;;;10.76;100.00
35226;BME280;21813;49.686;21.766;2023-04-19T11:39:44;98241.88;;;10.91;100.00
35226;BME280;21813;49.686;21.766;2023-04-19T11:42:19;98246.75;;;11.05;100.00
35226;BME280;21813;49.686;21.766;2023-04-19T11:44:49;98233.72;;;11.05;100.00
35226;BME280;21813;49.686;21.766;2023-04-19T11:47:17;98238.81;;;11.07;100.00
35226;BME280;21813;49.686;21.766;2023-04-19T11:49:44;98244.16;;;11.05;100.00
35226;BME280;21813;49.686;21.766;2023-04-19T11:52:11;98241.81;;;11.02;100.00
35226;BME280;21813;49.686;21.766;2023-04-19T11:54:36;98245.63;;;10.98;100.00
35226;BME280;21813;49.686;21.766;2023-04-19T11:57:06;98242.59;;;10.93;100.00
35226;BME280;21813;49.686;21.766;2023-04-19T11:59:34;98239.53;;;10.88;100.00
35226;BME280;21813;49.686;21.766;2023-04-19T12:02:09;98240.69;;;10.95;100.00
35226;BME280;21813;49.686;21.766;2023-04-19T12:04:35;98240.88;;;11.03;100.00
35226;BME280;21813;49.686;21.766;2023-04-19T12:07:03;98243.22;;;11.06;100.00
35226;BME280;21813;49.686;21.766;2023-04-19T12:09:32;98243.91;;;11.08;100.00
35226;BME280;21813;49.686;21.766;2023-04-19T12:11:58;98243.00;;;11.19;100.00
35226;BME280;21813;49.686;21.766;2023-04-19T12:14:24;98245.22;;;11.24;100.00
35226;BME280;21813;49.686;21.766;2023-04-19T12:17:08;98232.88;;;11.26;100.00
35226;BME280;21813;49.686;21.766;2023-04-19T12:19:46;98240.63;;;11.37;100.00
35226;BME280;21813;49.686;21.766;2023-04-19T12:22:15;98242.84;;;11.41;100.00
35226;BME280;21813;49.686;21.766;2023-04-19T12:24:41;98239.84;;;11.46;100.00
35226;BME280;21813;49.686;21.766;2023-04-19T12:27:10;98236.69;;;11.52;100.00
35226;BME280;21813;49.686;21.766;2023-04-19T12:29:37;98230.00;;;11.59;100.00
35226;BME280;21813;49.686;21.766;2023-04-19T12:32:04;98221.66;;;11.65;100.00
35226;BME280;21813;49.686;21.766;2023-04-19T12:34:29;98228.03;;;11.82;100.00
35226;BME280;21813;49.686;21.766;2023-04-19T12:36:56;98218.44;;;11.82;100.00
35226;BME280;21813;49.686;21.766;2023-04-19T12:39:22;98228.75;;;11.93;100.00
35226;BME280;21813;49.686;21.766;2023-04-19T12:41:49;98211.69;;;11.89;100.00
35226;BME280;21813;49.686;21.766;2023-04-19T12:44:15;98225.88;;;11.97;100.00
35226;BME280;21813;49.686;21.766;2023-04-19T12:46:41;98217.19;;;11.86;100.00
35226;BME280;21813;49.686;21.766;2023-04-19T12:49:07;98226.00;;;11.85;99.47
35226;BME280;21813;49.686;21.766;2023-04-19T12:51:33;98222.41;;;11.77;99.24
35226;BME280;21813;49.686;21.766;2023-04-19T12:54:00;98210.44;;;11.74;99.77
35226;BME280;21813;49.686;21.766;2023-04-19T12:56:28;98206.19;;;11.73;100.00
35226;BME280;21813;49.686;21.766;2023-04-19T12:58:54;98204.13;;;11.77;100.00
35226;BME280;21813;49.686;21.766;2023-04-19T13:01:20;98210.31;;;11.85;100.00
35226;BME280;21813;49.686;21.766;2023-04-19T13:03:46;98200.16;;;11.82;100.00
35226;BME280;21813;49.686;21.766;2023-04-19T13:06:13;98203.84;;;11.80;100.00
35226;BME280;21813;49.686;21.766;2023-04-19T13:08:39;98198.78;;;11.78;100.00
35226;BME280;21813;49.686;21.766;2023-04-19T13:11:07;98196.69;;;11.72;100.00
35226;BME280;21813;49.686;21.766;2023-04-19T13:13:33;98201.38;;;11.78;99.90
35226;BME280;21813;49.686;21.766;2023-04-19T13:15:59;98187.50;;;11.78;100.00
35226;BME280;21813;49.686;21.766;2023-04-19T13:18:25;98184.06;;;11.77;100.00
35226;BME280;21813;49.686;21.766;2023-04-19T13:20:52;98174.56;;;11.76;100.00
35226;BME280;21813;49.686;21.766;2023-04-19T13:23:18;98194.66;;;11.95;100.00
35226;BME280;21813;49.686;21.766;2023-04-19T13:25:45;98191.94;;;11.97;98.95
35226;BME280;21813;49.686;21.766;2023-04-19T13:28:10;98179.81;;;11.95;96.07
35226;BME280;21813;49.686;21.766;2023-04-19T13:30:38;98186.72;;;11.97;96.38
35226;BME280;21813;49.686;21.766;2023-04-19T13:33:03;98181.72;;;11.93;97.92
35226;BME280;21813;49.686;21.766;2023-04-19T13:35:30;98178.44;;;11.91;97.06
35226;BME280;21813;49.686;21.766;2023-04-19T13:37:56;98191.38;;;12.03;98.60
35226;BME280;21813;49.686;21.766;2023-04-19T13:40:25;98170.75;;;12.00;97.71
35226;BME280;21813;49.686;21.766;2023-04-19T13:42:51;98183.41;;;12.04;98.00
35226;BME280;21813;49.686;21.766;2023-04-19T13:45:19;98178.72;;;12.08;98.57